Terminal Aerodrome Forecast
Issued by NWS

Home | Current Version | Previous Version | Text Only | Print | Product List | Glossary Off
Versions: 1 2 3 4 5 6 7 8 9 10 11 12 13 14 15 16 17 18 19 20

000
FTUS43 KABR 252231 AAC
TAFATY
TAF AMD
KATY 252231Z 2523/2618 16011KT P6SM VCSH FEW070 OVC100
     FM260200 20008KT P6SM SCT250
     FM261000 28010KT P6SM SKC=

USA.gov is the U.S. government's official web portal to all federal, state and local government web resources and services.